Hamlet, North Carolina
Current Conditions -  °F | °C
As of 8:35 PM on Tuesday 25 Nov 2014 (Local Time) from KRCZ Reporting Station
Moderate Rain Moderate Rain  
Wind Chill: 53°   Ceiling: 8500
Heat Index: 53°   Visibility: 10mi
Dew Point: 51°   Wind: 5mph
Humidity: 92%   Direction: 60°ENE
Pressure: 30.08"   Gusts: NA
Location:  34.89°N, 79.7°W
Report Text: KRCZ 260135Z AUTO 06004KT 10SM RA SCT038 SCT055 OVC085 12/10 A3008 RMK AO2 P0001 T01160103
Loading
Personal Weather Stations






























Interactive Weather Map New forecast layout! Learn more

10-Day Weather Forecast

Advertisements
Track Severe Weather on mobile